Time;durP1;ratioP1;P1;durP2;ratioP2;P2;SDS_P1;SDS_P2;PMS_P1;PMS_P2;Temp;Humidity;BMP_temperature;BMP_pressure;BME280_temperature;BME280_humidity;BME280_pressure;Samples;Min_cycle;Max_cycle;Signal;HPM_P1;HPM_P2
2022/05/29 00:00:39;;;;;;;;;2.00;2.00;;;;;13.67;45.68;101593.56;6275379;22;45508;-79
2022/05/29 00:03:05;;;;;;;;;1.00;1.00;;;;;13.66;45.60;101580.38;6277671;22;46039;-79
2022/05/29 00:05:30;;;;;;;;;1.00;1.00;;;;;13.70;45.70;101586.53;6277643;22;45189;-79
2022/05/29 00:07:56;;;;;;;;;2.50;1.75;;;;;13.66;45.97;101591.81;6250206;22;45264;-79
2022/05/29 00:10:22;;;;;;;;;1.75;1.25;;;;;13.64;45.99;101582.13;6267201;22;45482;-79
2022/05/29 00:12:47;;;;;;;;;3.00;3.00;;;;;13.62;45.86;101581.25;6280687;22;46873;-79
2022/05/29 00:15:14;;;;;;;;;2.00;2.00;;;;;13.62;45.96;101582.13;6308980;22;45208;-80
2022/05/29 00:17:40;;;;;;;;;1.00;1.00;;;;;13.59;46.13;101574.19;6280603;22;45384;-79
2022/05/29 00:20:06;;;;;;;;;2.00;2.00;;;;;13.58;45.72;101568.91;6280733;22;45418;-79
2022/05/29 00:22:32;;;;;;;;;2.00;2.00;;;;;13.55;45.92;101559.25;6308547;22;46388;-79
2022/05/29 00:24:58;;;;;;;;;1.00;0.25;;;;;13.57;46.33;101570.66;6308844;22;45349;-80
2022/05/29 00:27:24;;;;;;;;;1.00;1.00;;;;;13.55;46.09;101567.16;6307685;22;45357;-79
2022/05/29 00:29:50;;;;;;;;;2.75;2.50;;;;;13.51;46.11;101562.75;6282077;22;45434;-79
2022/05/29 00:32:16;;;;;;;;;1.00;1.00;;;;;13.55;46.36;101576.84;6309727;22;45227;-80
2022/05/29 00:34:41;;;;;;;;;3.00;3.00;;;;;13.53;46.39;101570.72;6309938;22;45252;-80
2022/05/29 00:37:10;;;;;;;;;2.00;2.00;;;;;13.47;46.43;101571.56;6310070;22;45078;-80
2022/05/29 00:39:35;;;;;;;;;2.00;2.00;;;;;13.45;46.51;101571.59;6309772;22;45699;-80
2022/05/29 00:42:10;;;;;;;;;2.00;0.50;;;;;13.40;46.43;101567.19;6308676;22;46523;-79
2022/05/29 00:44:36;;;;;;;;;2.00;1.75;;;;;13.34;46.68;101562.81;6307744;22;45634;-80
2022/05/29 00:47:12;;;;;;;;;2.75;2.00;;;;;13.32;46.92;101566.34;6279691;22;45336;-80
2022/05/29 00:49:39;;;;;;;;;1.00;1.00;;;;;13.25;46.79;101557.47;6307567;22;45496;-79
2022/05/29 00:52:14;;;;;;;;;3.00;3.00;;;;;13.24;47.16;101561.91;6307439;22;45517;-79
2022/05/29 00:54:45;;;;;;;;;2.00;2.00;;;;;13.16;47.36;101555.75;6307097;22;45315;-80
2022/05/29 00:57:14;;;;;;;;;1.00;1.00;;;;;13.14;47.25;101567.19;6309309;22;45499;-79
2022/05/29 00:59:41;;;;;;;;;4.75;1.25;;;;;13.07;47.42;101560.16;6281318;22;45433;-80
2022/05/29 01:02:06;;;;;;;;;2.00;2.00;;;;;13.00;47.88;101557.53;6281486;22;46768;-80
2022/05/29 01:04:35;;;;;;;;;1.25;1.25;;;;;12.95;47.77;101550.47;6281617;22;45140;-80
2022/05/29 01:07:06;;;;;;;;;0.50;0.50;;;;;12.93;47.89;101557.50;6310115;22;45315;-80
2022/05/29 01:09:33;;;;;;;;;1.00;1.00;;;;;12.91;48.22;101561.91;6309532;22;45220;-80
2022/05/29 01:12:15;;;;;;;;;2.75;2.75;;;;;12.85;48.31;101562.81;6309466;22;46534;-79
2022/05/29 01:14:59;;;;;;;;;1.00;1.00;;;;;12.85;48.50;101557.50;6281355;22;45597;-79
2022/05/29 01:17:46;;;;;;;;;0.75;0.75;;;;;12.84;48.77;101555.75;6281608;22;45419;-79
2022/05/29 01:20:45;;;;;;;;;2.50;2.50;;;;;12.82;48.54;101546.94;6281413;22;45371;-80
2022/05/29 01:24:01;;;;;;;;;2.50;1.00;;;;;12.77;48.98;101544.28;6258247;22;46141;-80
2022/05/29 01:26:58;;;;;;;;;2.00;1.00;;;;;12.73;49.21;101544.31;6256152;22;45406;-79
2022/05/29 01:29:41;;;;;;;;;4.00;3.00;;;;;12.68;49.26;101539.03;6307553;22;45431;-80
2022/05/29 01:32:31;;;;;;;;;1.25;1.25;;;;;12.63;49.35;101531.97;6281209;22;45578;-80
2022/05/29 01:35:05;;;;;;;;;1.00;1.00;;;;;12.61;49.60;101534.59;6306041;22;47688;-80
2022/05/29 01:37:42;;;;;;;;;0.50;0.25;;;;;12.54;49.90;101533.75;6281274;22;45851;-80
2022/05/29 01:40:20;;;;;;;;;2.50;2.50;;;;;12.46;50.14;101530.22;6281289;22;45241;-80
2022/05/29 01:42:52;;;;;;;;;2.00;2.00;;;;;12.45;50.32;101530.19;6310048;22;45267;-79
2022/05/29 01:45:53;;;;;;;;;2.00;2.00;;;;;12.46;50.59;101529.34;6309643;22;45387;-80
2022/05/29 01:48:22;;;;;;;;;2.00;2.00;;;;;12.39;50.85;101524.91;6309574;22;45397;-80
2022/05/29 01:50:55;;;;;;;;;4.25;1.00;;;;;12.38;50.83;101525.81;6309280;22;45240;-79
2022/05/29 01:53:26;;;;;;;;;1.75;1.75;;;;;12.38;50.84;101533.72;6309973;22;45269;-79
2022/05/29 01:55:57;;;;;;;;;3.75;3.00;;;;;12.38;51.27;101528.44;6281355;22;47188;-80
2022/05/29 01:58:37;;;;;;;;;2.50;2.25;;;;;12.30;51.25;101525.78;6309458;22;45159;-80
2022/05/29 02:01:05;;;;;;;;;1.00;1.00;;;;;12.24;51.35;101520.47;6281724;22;45444;-80
2022/05/29 02:03:37;;;;;;;;;1.75;1.75;;;;;12.27;51.45;101531.03;6281607;22;45404;-79
2022/05/29 02:06:11;;;;;;;;;1.25;1.00;;;;;12.26;51.49;101532.81;6309234;22;46222;-80
2022/05/29 02:09:01;;;;;;;;;3.50;2.75;;;;;12.24;51.86;101528.41;6307471;22;45902;-79
2022/05/29 02:11:28;;;;;;;;;2.50;2.50;;;;;12.19;51.74;101528.41;6281835;22;45185;-80
2022/05/29 02:14:15;;;;;;;;;2.00;2.00;;;;;12.19;51.77;101535.41;6282030;22;45346;-80
2022/05/29 02:16:48;;;;;;;;;2.00;2.00;;;;;12.12;52.11;101530.13;6309642;22;45392;-79
2022/05/29 02:19:25;;;;;;;;;3.00;2.00;;;;;12.01;52.20;101516.03;6281013;22;45106;-79
2022/05/29 02:22:12;;;;;;;;;1.00;1.00;;;;;12.06;52.31;101529.25;6309630;22;45262;-79
2022/05/29 02:24:54;;;;;;;;;2.00;2.00;;;;;12.00;51.97;101519.56;6280812;22;45508;-80
2022/05/29 02:27:50;;;;;;;;;1.00;1.00;;;;;11.98;52.73;101531.88;6309447;22;45401;-80
2022/05/29 02:30:16;;;;;;;;;4.50;2.50;;;;;11.94;52.75;101518.66;6281339;22;45407;-80
2022/05/29 02:32:50;;;;;;;;;2.75;2.75;;;;;11.90;52.97;101521.28;6309297;22;45373;-80
2022/05/29 02:35:30;;;;;;;;;2.00;2.00;;;;;11.85;52.83;101517.72;6282112;22;45365;-80
2022/05/29 02:38:22;;;;;;;;;2.00;2.00;;;;;11.79;53.09;101509.78;6309558;22;45366;-79
2022/05/29 02:41:06;;;;;;;;;1.75;1.50;;;;;11.79;53.38;101514.19;6307877;22;45284;-80
2022/05/29 02:43:48;;;;;;;;;3.00;2.00;;;;;11.81;53.16;101517.69;6298549;22;45356;-80
2022/05/29 02:46:43;;;;;;;;;1.75;1.00;;;;;11.81;53.45;101518.56;6281364;22;45506;-80
2022/05/29 02:49:27;;;;;;;;;4.00;2.75;;;;;11.77;53.19;101511.53;6298381;22;46360;-80
2022/05/29 02:52:04;;;;;;;;;2.75;2.75;;;;;11.78;53.43;101513.28;6281345;22;45173;-80
2022/05/29 02:54:32;;;;;;;;;2.50;2.50;;;;;11.74;53.58;101514.16;6309534;22;45337;-80
2022/05/29 02:56:59;;;;;;;;;1.50;1.50;;;;;11.71;53.51;101508.88;6283934;22;45638;-79
2022/05/29 02:59:51;;;;;;;;;2.25;2.00;;;;;11.67;53.71;101505.31;6309866;22;46157;-79
2022/05/29 03:02:26;;;;;;;;;1.00;1.00;;;;;11.71;53.87;101511.50;6293651;22;45996;-79
2022/05/29 03:05:20;;;;;;;;;2.00;1.00;;;;;11.71;53.87;101514.16;6309557;22;45484;-80
2022/05/29 03:08:11;;;;;;;;;3.75;2.50;;;;;11.68;54.07;101508.84;6298624;22;45370;-80
2022/05/29 03:10:45;;;;;;;;;2.75;2.75;;;;;11.64;54.21;101499.16;6298671;22;46145;-80
2022/05/29 03:13:19;;;;;;;;;3.50;3.50;;;;;11.67;54.02;101507.97;6309087;22;45187;-80
2022/05/29 03:16:05;;;;;;;;;3.00;3.00;;;;;11.65;54.47;101509.72;6309367;22;45378;-80
2022/05/29 03:19:09;;;;;;;;;3.00;3.00;;;;;11.59;54.37;101496.50;6285385;22;45161;-80
2022/05/29 03:21:55;;;;;;;;;2.00;2.00;;;;;11.58;54.42;101504.44;6280682;22;48144;-80
2022/05/29 03:24:53;;;;;;;;;3.25;3.25;;;;;11.53;54.65;101501.75;6309166;22;45132;-80
2022/05/29 03:27:40;;;;;;;;;5.00;4.00;;;;;11.50;54.65;101498.25;6280986;22;45269;-79
2022/05/29 03:30:29;;;;;;;;;1.25;1.25;;;;;11.44;54.75;101497.31;6309576;22;45362;-79
2022/05/29 03:32:58;;;;;;;;;2.00;2.00;;;;;11.43;54.82;101498.19;6280783;22;47112;-79
2022/05/29 03:35:34;;;;;;;;;3.25;3.25;;;;;11.38;54.92;101483.22;6309144;22;45170;-80
2022/05/29 03:38:03;;;;;;;;;2.25;2.25;;;;;11.44;55.21;101491.16;6281099;22;45366;-80
2022/05/29 03:40:32;;;;;;;;;3.00;3.00;;;;;11.43;55.30;101487.63;6309251;22;45561;-80
2022/05/29 03:42:58;;;;;;;;;4.00;3.00;;;;;11.37;55.28;101487.63;6281537;22;47845;-80
2022/05/29 03:45:24;;;;;;;;;2.50;2.50;;;;;11.35;55.32;101478.81;6309087;22;45179;-80
2022/05/29 03:47:50;;;;;;;;;2.00;2.00;;;;;11.37;55.32;101484.09;6309256;22;45272;-80
2022/05/29 03:50:18;;;;;;;;;3.00;1.75;;;;;11.32;55.33;101486.72;6308796;22;45344;-80
2022/05/29 03:52:45;;;;;;;;;2.75;2.25;;;;;11.32;55.67;101489.34;6308712;22;46411;-80
2022/05/29 03:55:10;;;;;;;;;2.75;2.75;;;;;11.25;55.34;101487.53;6308625;22;45201;-80
2022/05/29 03:57:36;;;;;;;;;2.50;2.50;;;;;11.27;55.70;101491.06;6309273;22;45219;-80
2022/05/29 04:00:05;;;;;;;;;3.00;3.00;;;;;11.22;55.93;101477.88;6284201;22;45527;-79
2022/05/29 04:02:31;;;;;;;;;2.00;1.00;;;;;11.25;55.90;101487.53;6312583;22;45226;-80
2022/05/29 04:04:56;;;;;;;;;3.00;3.00;;;;;11.24;55.57;101491.94;6312490;22;45381;-80
2022/05/29 04:12:03;;;;;;;;;3.00;3.00;;;;;11.26;55.95;101486.69;6284547;22;45359;-80
2022/05/29 04:12:58;;;;;;;;;4.00;4.00;;;;;11.27;55.99;101489.31;6312049;22;45272;-80
2022/05/29 04:15:23;;;;;;;;;2.75;0.75;;;;;11.25;55.94;101491.09;6284123;22;45854;-80
2022/05/29 04:17:50;;;;;;;;;3.00;3.00;;;;;11.29;55.96;101493.72;6312240;22;45236;-80
2022/05/29 04:20:15;;;;;;;;;1.00;1.00;;;;;11.30;55.90;101492.84;6312327;22;45387;-80
2022/05/29 04:22:41;;;;;;;;;2.00;2.00;;;;;11.26;56.15;101484.94;6283565;22;47186;-80
2022/05/29 04:25:07;;;;;;;;;1.00;1.00;;;;;11.32;56.21;101496.38;6283869;22;45893;-80
2022/05/29 04:27:32;;;;;;;;;4.50;4.00;;;;;11.34;56.30;101499.91;6312074;22;45374;-79
2022/05/29 04:29:58;;;;;;;;;1.50;1.50;;;;;11.30;56.27;101488.44;6312320;22;45397;-80
2022/05/29 04:35:08;;;;;;;;;3.25;3.00;;;;;11.29;56.41;101488.47;6311852;22;45404;-80
2022/05/29 04:37:35;;;;;;;;;2.00;2.00;;;;;11.31;56.19;101477.06;6312247;22;45287;-80
2022/05/29 04:40:01;;;;;;;;;2.50;2.50;;;;;11.35;56.32;101481.44;6311546;22;45152;-80
2022/05/29 04:42:26;;;;;;;;;5.25;5.25;;;;;11.33;56.29;101479.69;6311895;22;45605;-80
2022/05/29 04:44:52;;;;;;;;;3.00;3.00;;;;;11.34;56.13;101469.16;6283806;22;45172;-79
2022/05/29 04:47:17;;;;;;;;;3.00;2.75;;;;;11.35;56.13;101468.25;6284012;22;45229;-79
2022/05/29 04:49:43;;;;;;;;;5.25;4.25;;;;;11.41;56.40;101472.69;6312170;22;45168;-79
2022/05/29 04:52:11;;;;;;;;;11.25;9.00;;;;;11.44;56.12;101477.97;6312046;22;45215;-79
2022/05/29 04:54:38;;;;;;;;;6.25;3.50;;;;;11.40;56.40;101479.72;6283215;22;45295;-79
2022/05/29 04:57:08;;;;;;;;;4.00;2.75;;;;;11.45;56.45;101485.03;6311939;22;45270;-79
2022/05/29 04:59:35;;;;;;;;;5.25;5.25;;;;;11.42;56.41;101474.47;6311647;22;45362;-79
2022/05/29 05:02:02;;;;;;;;;3.00;3.00;;;;;11.42;56.35;101477.09;6310856;22;45302;-79
2022/05/29 05:04:28;;;;;;;;;3.50;3.50;;;;;11.46;56.39;101486.78;6283451;22;45422;-79
2022/05/29 05:06:58;;;;;;;;;4.00;4.00;;;;;11.45;56.41;101487.66;6284023;22;45379;-79
2022/05/29 05:09:25;;;;;;;;;3.25;2.75;;;;;11.39;56.48;101475.34;6311769;22;45282;-79
2022/05/29 05:11:54;;;;;;;;;2.00;2.00;;;;;11.43;56.53;101479.72;6308645;22;45363;-79
2022/05/29 05:14:21;;;;;;;;;4.50;3.50;;;;;11.45;56.58;101470.06;6281678;22;45125;-79
2022/05/29 05:16:50;;;;;;;;;3.00;2.00;;;;;11.48;56.37;101474.47;6308190;22;45268;-80
2022/05/29 05:19:16;;;;;;;;;5.50;4.00;;;;;11.45;56.39;101478.00;6281158;22;45398;-77
2022/05/29 05:21:42;;;;;;;;;3.50;3.50;;;;;11.51;56.46;101492.06;6281843;22;47013;-78
2022/05/29 05:24:08;;;;;;;;;3.00;2.00;;;;;11.43;56.39;101465.66;6309405;22;45275;-77
2022/05/29 05:26:34;;;;;;;;;1.00;1.00;;;;;11.44;56.47;101477.97;6309855;22;45303;-78
2022/05/29 05:29:00;;;;;;;;;3.00;2.50;;;;;11.46;56.43;101484.13;6309782;22;45164;-79
2022/05/29 05:31:25;;;;;;;;;4.25;2.00;;;;;11.38;56.75;101475.31;6281470;22;46056;-78
2022/05/29 05:33:52;;;;;;;;;2.75;2.75;;;;;11.46;56.74;101477.09;6309449;22;45164;-77
2022/05/29 05:36:18;;;;;;;;;3.25;3.25;;;;;11.51;56.61;101470.97;6309992;22;45441;-78
2022/05/29 05:38:44;;;;;;;;;2.00;2.00;;;;;11.49;56.88;101473.59;6280890;22;45952;-79
2022/05/29 05:41:11;;;;;;;;;2.00;1.00;;;;;11.59;56.67;101480.69;6281685;22;47483;-80
2022/05/29 05:43:36;;;;;;;;;3.50;2.75;;;;;11.58;56.61;101467.50;6281332;22;45469;-79
2022/05/29 05:46:10;;;;;;;;;4.25;3.50;;;;;11.68;56.66;101478.09;6281640;22;45268;-79
2022/05/29 05:48:36;;;;;;;;;3.00;3.00;;;;;11.70;56.67;101480.72;6309007;22;45414;-79
2022/05/29 05:51:03;;;;;;;;;6.00;6.00;;;;;11.76;56.46;101480.75;6309364;22;46419;-79
2022/05/29 05:53:28;;;;;;;;;4.00;3.75;;;;;11.79;56.53;101479.88;6279958;22;45699;-79
2022/05/29 05:55:54;;;;;;;;;3.00;3.00;;;;;11.81;56.14;101475.47;6309628;22;45275;-79
2022/05/29 05:58:20;;;;;;;;;4.50;3.00;;;;;11.90;56.28;101494.91;6281333;22;45694;-80
2022/05/29 06:00:47;;;;;;;;;6.00;5.25;;;;;11.91;56.11;101477.31;6309163;22;45325;-78
2022/05/29 06:03:12;;;;;;;;;12.50;12.50;;;;;11.95;55.88;101479.09;6281535;22;45117;-80
2022/05/29 06:05:38;;;;;;;;;14.50;9.00;;;;;12.01;55.88;101481.72;6281523;22;45204;-80
2022/05/29 06:08:04;;;;;;;;;6.00;5.00;;;;;12.05;55.88;101482.59;6309641;22;45402;-81
2022/05/29 06:10:30;;;;;;;;;5.50;5.50;;;;;12.13;55.63;101481.78;6281042;22;47100;-79
2022/05/29 06:13:00;;;;;;;;;6.25;5.00;;;;;12.14;55.43;101472.09;6305668;22;45414;-79
2022/05/29 06:15:27;;;;;;;;;5.25;4.00;;;;;12.16;55.03;101466.78;6307795;22;45414;-80
2022/05/29 06:17:52;;;;;;;;;2.00;2.00;;;;;12.25;55.36;101474.75;6298763;22;45407;-80
2022/05/29 06:20:20;;;;;;;;;6.00;4.25;;;;;12.30;55.03;101476.50;6279058;22;47066;-82
2022/05/29 06:22:46;;;;;;;;;16.25;16.25;;;;;12.28;55.11;101459.78;6278602;22;45374;-80
2022/05/29 06:25:12;;;;;;;;;2.75;2.75;;;;;12.35;54.81;101468.59;6279343;22;45353;-80
2022/05/29 06:27:43;;;;;;;;;18.00;17.00;;;;;12.44;54.58;101467.72;6307447;22;45517;-80
2022/05/29 06:30:11;;;;;;;;;4.00;4.00;;;;;12.46;53.99;101465.97;6278723;22;47401;-80
2022/05/29 06:32:37;;;;;;;;;4.50;3.75;;;;;12.48;53.89;101466.81;6307268;22;45352;-80
2022/05/29 06:35:04;;;;;;;;;4.00;4.00;;;;;12.54;54.55;101472.13;6305358;22;45388;-79
2022/05/29 06:37:31;;;;;;;;;3.00;2.50;;;;;12.54;54.30;101458.91;6307001;22;45282;-80
2022/05/29 06:39:57;;;;;;;;;9.50;8.25;;;;;12.66;54.07;101466.81;6307114;22;45298;-80
2022/05/29 06:42:22;;;;;;;;;14.25;14.25;;;;;12.70;53.55;101463.28;6279304;22;45310;-80
2022/05/29 06:44:48;;;;;;;;;10.00;10.00;;;;;12.79;53.33;101462.41;6279639;22;45412;-80
2022/05/29 06:47:15;;;;;;;;;21.75;21.25;;;;;12.90;53.38;101465.91;6307854;22;45233;-80
2022/05/29 06:49:41;;;;;;;;;14.75;13.25;;;;;12.97;53.14;101474.72;6307024;22;45350;-80
2022/05/29 06:52:08;;;;;;;;;9.25;8.00;;;;;13.05;52.65;101474.69;6279581;22;45546;-80
2022/05/29 06:54:34;;;;;;;;;11.00;9.25;;;;;13.11;52.61;101470.25;6279243;22;45377;-80
2022/05/29 06:57:02;;;;;;;;;13.00;11.00;;;;;13.15;52.39;101477.31;6279263;22;45629;-80
2022/05/29 06:59:27;;;;;;;;;7.75;7.75;;;;;13.21;52.26;101468.50;6279413;22;46883;-80
2022/05/29 07:07:23;;;;;;;;;6.00;5.75;;;;;13.49;51.45;101471.06;6307457;22;45334;-80
2022/05/29 07:09:49;;;;;;;;;7.50;5.00;;;;;13.54;51.00;101464.00;6278548;22;46957;-80
2022/05/29 07:12:26;;;;;;;;;4.25;4.25;;;;;13.57;50.87;101467.50;6307679;22;45328;-80
2022/05/29 07:15:00;;;;;;;;;3.00;3.00;;;;;13.64;50.04;101463.94;6279404;22;45316;-80
2022/05/29 07:17:27;;;;;;;;;2.75;2.75;;;;;13.69;50.15;101461.28;6279083;22;45711;-80
2022/05/29 07:19:53;;;;;;;;;5.00;4.00;;;;;13.78;49.86;101463.00;6279100;22;45559;-80
2022/05/29 07:22:18;;;;;;;;;3.50;3.00;;;;;13.89;49.40;101461.16;6279045;22;45450;-80
2022/05/29 07:24:44;;;;;;;;;2.00;2.00;;;;;13.97;49.22;101451.41;6279049;22;45345;-81
2022/05/29 07:27:10;;;;;;;;;1.25;1.00;;;;;14.10;48.55;101457.50;6276099;22;45434;-80
2022/05/29 07:29:35;;;;;;;;;1.00;1.00;;;;;14.28;48.19;101456.50;6279353;22;47154;-80
2022/05/29 07:32:02;;;;;;;;;1.00;1.00;;;;;14.49;48.09;101456.31;6307455;22;45214;-80
2022/05/29 07:34:28;;;;;;;;;2.25;2.25;;;;;14.67;47.62;101452.66;6278591;22;45348;-80
2022/05/29 07:37:00;;;;;;;;;3.00;3.00;;;;;14.76;47.36;101457.00;6279246;22;45228;-83
2022/05/29 07:39:25;;;;;;;;;3.00;3.00;;;;;14.78;47.52;101447.25;6278599;22;47258;-83
2022/05/29 07:44:35;;;;;;;;;3.00;2.00;;;;;14.65;46.78;101457.09;6309742;22;45284;-81
2022/05/29 07:47:00;;;;;;;;;3.25;3.25;;;;;14.51;47.00;101449.25;6307893;22;45291;-79
2022/05/29 07:49:25;;;;;;;;;3.00;3.00;;;;;14.53;47.41;101449.25;6279140;22;47083;-79
2022/05/29 07:51:53;;;;;;;;;2.00;2.00;;;;;14.62;47.31;101451.84;6278774;22;45299;-79
2022/05/29 07:54:20;;;;;;;;;2.50;1.00;;;;;14.72;46.78;101445.53;6304683;22;45332;-78
2022/05/29 07:56:46;;;;;;;;;2.00;1.00;;;;;14.91;46.80;101454.19;6278942;22;45677;-78
2022/05/29 07:59:14;;;;;;;;;2.50;2.00;;;;;15.13;46.32;101451.28;6306681;22;45386;-78
2022/05/29 08:01:39;;;;;;;;;1.75;1.75;;;;;15.31;46.43;101452.88;6278507;22;45367;-80
2022/05/29 08:04:05;;;;;;;;;2.50;1.00;;;;;15.49;45.49;101442.03;6306892;22;45429;-79
2022/05/29 08:06:30;;;;;;;;;2.25;1.75;;;;;15.70;45.44;101442.69;6307015;22;45509;-78
2022/05/29 08:08:59;;;;;;;;;2.00;2.00;;;;;15.79;44.96;101447.84;6278779;22;46184;-77
2022/05/29 08:11:24;;;;;;;;;2.00;2.00;;;;;15.76;45.01;101448.78;6278765;22;45252;-78
2022/05/29 08:13:49;;;;;;;;;1.00;1.00;;;;;15.65;44.77;101446.22;6306491;22;45584;-78
2022/05/29 08:16:16;;;;;;;;;1.75;1.75;;;;;15.58;44.26;101444.59;6306494;22;45343;-79
2022/05/29 08:18:41;;;;;;;;;2.00;2.00;;;;;15.51;44.21;101444.69;6306618;22;45468;-78
2022/05/29 08:21:07;;;;;;;;;2.00;2.00;;;;;15.47;44.28;101451.78;6307025;22;45540;-78
2022/05/29 08:23:35;;;;;;;;;4.00;4.00;;;;;15.42;44.39;101435.03;6279055;22;45347;-78
2022/05/29 08:31:29;;;;;;;;;1.50;1.50;;;;;15.34;43.69;101437.81;6306770;22;45479;-78
2022/05/29 08:33:54;;;;;;;;;2.75;2.00;;;;;15.35;43.48;101436.03;6306656;22;45399;-77
2022/05/29 08:36:26;;;;;;;;;2.75;2.75;;;;;15.43;43.52;101423.53;6307089;22;45292;-78
2022/05/29 08:38:55;;;;;;;;;3.00;3.00;;;;;15.56;43.17;101422.47;6303263;22;47140;-78
2022/05/29 08:41:46;;;;;;;;;2.00;2.00;;;;;15.72;42.88;101423.19;6304464;22;45249;-78
2022/05/29 08:44:23;;;;;;;;;4.00;2.00;;;;;15.92;42.84;101422.88;6306797;22;45468;-78
2022/05/29 08:46:52;;;;;;;;;2.00;2.00;;;;;16.09;42.83;101422.63;6307293;22;45310;-79
2022/05/29 08:49:29;;;;;;;;;1.00;1.00;;;;;16.34;42.70;101425.78;6307652;22;46051;-79
2022/05/29 08:52:15;;;;;;;;;1.25;1.25;;;;;16.57;42.10;101413.84;6307132;22;45247;-79
2022/05/29 08:54:58;;;;;;;;;2.00;1.00;;;;;16.67;41.33;101416.31;6281473;22;45385;-78
2022/05/29 08:57:44;;;;;;;;;1.00;1.00;;;;;16.67;41.00;101416.31;6281488;22;45292;-78
2022/05/29 09:00:20;;;;;;;;;1.00;1.00;;;;;16.59;40.95;101410.28;6275750;22;45505;-78
2022/05/29 09:02:49;;;;;;;;;1.00;1.00;;;;;16.53;40.71;101413.03;6277805;22;45421;-78
2022/05/29 09:05:54;;;;;;;;;0.67;0.67;;;;;16.53;40.51;101410.38;6278294;22;45457;-78
2022/05/29 09:08:28;;;;;;;;;2.75;1.25;;;;;16.53;40.02;101410.38;6276355;22;45371;-78
2022/05/29 09:10:59;;;;;;;;;3.00;2.00;;;;;16.46;39.77;101401.63;6250260;22;47123;-78
2022/05/29 09:13:38;;;;;;;;;2.00;2.00;;;;;16.43;40.14;101401.69;6278611;22;45319;-78
2022/05/29 09:16:12;;;;;;;;;1.75;1.75;;;;;16.47;40.50;101405.19;6278374;22;45467;-78
2022/05/29 09:18:41;;;;;;;;;1.75;1.75;;;;;16.51;40.51;101394.44;6278286;22;45342;-79
2022/05/29 09:21:18;;;;;;;;;3.00;3.00;;;;;16.53;40.45;101403.28;6277762;22;45539;-77
2022/05/29 09:23:57;;;;;;;;;3.50;1.00;;;;;16.51;40.48;101406.88;6278398;22;45118;-79
2022/05/29 09:26:23;;;;;;;;;1.50;1.50;;;;;16.46;40.46;101400.75;6278783;22;45363;-83
2022/05/29 09:28:49;;;;;;;;;2.00;2.00;;;;;16.46;39.97;101400.75;6277947;22;45370;-81
2022/05/29 09:31:19;;;;;;;;;3.50;2.50;;;;;16.47;40.02;101387.44;6278522;22;45396;-82
2022/05/29 09:33:46;;;;;;;;;2.00;2.00;;;;;16.43;40.48;101388.41;6278370;22;45295;-80
2022/05/29 09:36:36;;;;;;;;;2.00;2.00;;;;;16.37;40.57;101387.66;6276508;22;45330;-80
2022/05/29 09:39:32;;;;;;;;;4.00;4.00;;;;;16.30;40.24;101382.44;6276068;22;45847;-79
2022/05/29 09:42:25;;;;;;;;;1.75;1.75;;;;;16.26;40.19;101378.06;6250316;22;47859;-79
2022/05/29 09:45:28;;;;;;;;;1.75;1.75;;;;;16.22;40.22;101379.00;6250282;22;45500;-79
2022/05/29 09:51:01;;;;;;;;;1.00;1.00;;;;;16.27;39.81;101381.59;6278063;22;45190;-79
2022/05/29 09:53:34;;;;;;;;;2.50;2.00;;;;;16.27;39.99;101385.13;6277796;22;46250;-80
2022/05/29 09:56:08;;;;;;;;;1.75;1.75;;;;;16.31;40.01;101378.00;6250712;22;45367;-79
2022/05/29 09:58:47;;;;;;;;;1.67;1.67;;;;;16.46;40.09;101377.72;6250914;22;45473;-80
2022/05/29 10:01:30;;;;;;;;;2.00;2.00;;;;;16.64;40.06;101365.88;6297468;22;45205;-77
2022/05/29 10:03:58;;;;;;;;;2.33;1.67;;;;;16.83;39.51;101355.78;6278006;22;46868;-79
2022/05/29 10:06:31;;;;;;;;;3.00;2.33;;;;;17.01;39.50;101351.88;6307838;22;45330;-79
2022/05/29 10:09:25;;;;;;;;;3.75;2.00;;;;;17.16;39.09;101353.34;6281160;22;45247;-79
2022/05/29 10:11:53;;;;;;;;;2.00;2.00;;;;;17.18;38.74;101352.41;6304819;22;45181;-79
2022/05/29 10:14:24;;;;;;;;;2.00;1.00;;;;;17.25;38.91;101357.59;6307019;22;45321;-79
2022/05/29 10:16:51;;;;;;;;;1.00;1.00;;;;;17.26;39.01;101360.22;6280135;22;45316;-79
2022/05/29 10:19:39;;;;;;;;;4.00;4.00;;;;;17.28;38.73;101362.84;6305425;22;45182;-80
2022/05/29 10:22:35;;;;;;;;;2.00;1.25;;;;;17.22;38.17;101358.56;6308971;22;45330;-79
2022/05/29 10:25:13;;;;;;;;;2.00;2.00;;;;;17.14;38.29;101357.84;6306536;22;45414;-80
2022/05/29 10:27:39;;;;;;;;;2.75;2.75;;;;;17.07;39.08;101358.88;6307292;22;45461;-80
2022/05/29 10:30:09;;;;;;;;;2.75;2.75;;;;;17.02;38.96;101356.28;6309253;22;45210;-80
2022/05/29 10:32:38;;;;;;;;;2.75;2.75;;;;;16.97;39.36;101353.75;6308612;22;45370;-80
2022/05/29 10:35:28;;;;;;;;;2.75;2.75;;;;;17.04;39.29;101351.81;6308596;22;45519;-79
2022/05/29 10:37:57;;;;;;;;;2.00;2.00;;;;;17.09;39.33;101352.59;6290713;22;45416;-79
2022/05/29 10:40:27;;;;;;;;;4.00;4.00;;;;;17.12;38.56;101349.00;6280686;22;45283;-80
2022/05/29 10:42:55;;;;;;;;;2.00;2.00;;;;;17.13;38.24;101348.06;6281025;22;45434;-79
2022/05/29 10:45:47;;;;;;;;;3.75;3.75;;;;;17.11;37.84;101344.59;6280806;22;47783;-79
2022/05/29 10:48:44;;;;;;;;;6.00;5.00;;;;;17.14;37.72;101339.22;6309642;22;45290;-81
2022/05/29 10:51:24;;;;;;;;;3.00;3.00;;;;;17.12;37.34;101335.69;6234546;22;45438;-80
2022/05/29 10:54:34;;;;;;;;;2.00;2.00;;;;;17.14;37.21;101339.22;6280464;22;45362;-80
2022/05/29 10:57:20;;;;;;;;;3.00;3.00;;;;;17.23;37.24;101343.44;6183350;23;47191;-81
2022/05/29 11:00:08;;;;;;;;;2.00;2.00;;;;;17.34;37.19;101333.44;6156631;23;45364;-80
2022/05/29 11:05:32;;;;;;;;;5.00;4.25;;;;;17.56;37.23;101321.41;6308821;22;45388;-81
2022/05/29 11:08:26;;;;;;;;;3.00;3.00;;;;;17.72;37.49;101321.91;6280710;22;47131;-80
2022/05/29 11:11:19;;;;;;;;;4.00;3.00;;;;;17.87;37.51;101311.81;6308598;22;45202;-81
2022/05/29 11:13:59;;;;;;;;;4.00;3.00;;;;;18.00;37.30;101310.59;6280201;22;45377;-81
2022/05/29 11:16:40;;;;;;;;;4.50;4.00;;;;;18.17;36.89;101312.81;6307699;22;45590;-80
2022/05/29 11:19:29;;;;;;;;;4.00;4.00;;;;;18.34;36.44;101312.41;6308061;22;45381;-81
2022/05/29 11:22:07;;;;;;;;;6.50;5.50;;;;;18.51;34.92;101310.13;6279904;22;45406;-81
2022/05/29 11:24:53;;;;;;;;;4.50;3.00;;;;;18.59;34.90;101308.13;6308188;22;45261;-80
2022/05/29 11:27:41;;;;;;;;;3.00;3.00;;;;;18.71;34.14;101304.22;6309119;22;45523;-77
2022/05/29 11:30:24;;;;;;;;;2.00;2.00;;;;;18.84;33.76;101300.31;6275972;22;47517;-82
2022/05/29 11:33:20;;;;;;;;;3.00;3.00;;;;;18.91;33.18;101296.56;6281549;22;45436;-82
2022/05/29 11:36:16;;;;;;;;;4.00;4.00;;;;;19.03;32.47;101294.44;6277162;22;45473;-82
2022/05/29 11:39:33;;;;;;;;;2.00;2.00;;;;;19.10;32.14;101282.69;6280450;22;45247;-83
2022/05/29 11:42:17;;;;;;;;;4.75;1.75;;;;;19.33;32.20;101276.63;6227611;22;47074;-83
2022/05/29 11:44:55;;;;;;;;;2.75;2.75;;;;;19.56;32.79;101271.41;6306903;22;45232;-83
2022/05/29 11:53:26;;;;;;;;;2.00;2.00;;;;;19.96;32.84;101261.22;6308231;22;45695;-84
2022/05/29 11:55:56;;;;;;;;;2.00;1.00;;;;;20.08;32.33;101254.59;6281546;22;45272;-81
2022/05/29 11:58:42;;;;;;;;;3.00;2.00;;;;;20.22;33.07;101242.47;6308285;22;45282;-86
2022/05/29 12:01:14;;;;;;;;;5.50;4.50;;;;;20.36;32.29;101241.97;6279908;22;45666;-82
2022/05/29 12:04:01;;;;;;;;;3.75;3.75;;;;;20.36;31.74;101241.09;6279341;22;46872;-81
2022/05/29 12:06:31;;;;;;;;;7.00;5.00;;;;;20.24;30.92;101242.44;6278924;22;45636;-81
2022/05/29 12:08:59;;;;;;;;;3.25;2.50;;;;;20.12;30.33;101233.03;6304073;22;45313;-82
2022/05/29 12:11:48;;;;;;;;;3.00;3.00;;;;;20.06;30.55;101235.94;6306085;22;45279;-81
2022/05/29 12:14:24;;;;;;;;;3.75;3.75;;;;;20.04;29.85;101235.09;6305984;22;45369;-83
2022/05/29 12:17:07;;;;;;;;;7.50;7.00;;;;;20.01;29.58;101236.06;6307675;22;45278;-81
2022/05/29 12:19:41;;;;;;;;;40.25;34.25;;;;;20.10;29.69;101232.22;6307191;22;45488;-81
2022/05/29 12:22:09;;;;;;;;;32.50;31.50;;;;;20.16;30.04;101229.34;6308769;22;45339;-81
2022/05/29 12:24:43;;;;;;;;;5.00;3.75;;;;;20.30;30.33;101220.81;6307917;22;45436;-80